Time;durP1;ratioP1;P1;durP2;ratioP2;P2;SDS_P1;SDS_P2;PMS_P1;PMS_P2;Temp;Humidity;BMP_temperature;BMP_pressure;BME280_temperature;BME280_humidity;BME280_pressure;Samples;Min_cycle;Max_cycle;Signal;HPM_P1;HPM_P2
2023/12/13 00:00:00;;;;;;;17.85;6.82;;;19.90;65.10;;;;;;5035089;28;20025;-53
2023/12/13 00:02:26;;;;;;;18.13;6.90;;;19.90;65.50;;;;;;5053404;28;20483;-57
2023/12/13 00:04:52;;;;;;;18.00;6.95;;;19.90;65.00;;;;;;5002989;28;20036;-57
2023/12/13 00:07:18;;;;;;;17.27;6.68;;;19.90;64.90;;;;;;5053309;28;20033;-56
2023/12/13 00:09:44;;;;;;;15.57;6.93;;;19.90;64.80;;;;;;5052862;28;20079;-57
2023/12/13 00:12:10;;;;;;;15.50;6.75;;;19.90;64.70;;;;;;5018628;28;20028;-54
2023/12/13 00:14:36;;;;;;;14.77;6.13;;;19.90;65.20;;;;;;5053054;28;20404;-56
2023/12/13 00:17:03;;;;;;;18.90;6.70;;;19.90;64.60;;;;;;5051980;28;20032;-57
2023/12/13 00:19:29;;;;;;;16.67;6.50;;;19.90;64.60;;;;;;5035023;28;20028;-57
2023/12/13 00:21:55;;;;;;;16.48;6.75;;;19.90;64.50;;;;;;5053162;28;20480;-57
2023/12/13 00:24:20;;;;;;;19.30;6.95;;;19.90;64.50;;;;;;4991398;28;20094;-52
2023/12/13 00:26:49;;;;;;;14.15;6.15;;;19.90;64.30;;;;;;5028330;28;20035;-57
2023/12/13 00:29:15;;;;;;;14.57;6.65;;;19.90;64.40;;;;;;5050937;28;20552;-57
2023/12/13 00:31:40;;;;;;;14.73;6.35;;;19.90;64.30;;;;;;5051848;28;20100;-55
2023/12/13 00:34:06;;;;;;;25.98;6.30;;;19.90;64.30;;;;;;5033735;28;20021;-57
2023/12/13 00:36:32;;;;;;;20.40;6.80;;;19.90;64.40;;;;;;5050422;28;20396;-55
2023/12/13 00:38:58;;;;;;;16.98;6.75;;;19.80;64.30;;;;;;5051573;28;20079;-57
2023/12/13 00:41:24;;;;;;;12.70;6.50;;;19.80;64.20;;;;;;5052474;28;20060;-55
2023/12/13 00:43:50;;;;;;;11.50;5.88;;;19.90;64.30;;;;;;5052195;28;20025;-54
2023/12/13 00:46:20;;;;;;;12.57;6.20;;;19.80;64.40;;;;;;5052135;28;20384;-57
2023/12/13 00:48:47;;;;;;;13.27;6.63;;;19.80;64.10;;;;;;5033665;28;20035;-56
2023/12/13 00:51:21;;;;;;;18.35;6.82;;;19.90;64.10;;;;;;5052223;28;20456;-56
2023/12/13 00:53:47;;;;;;;12.70;5.97;;;19.80;64.20;;;;;;5038799;28;20021;-57
2023/12/13 00:56:14;;;;;;;12.35;6.05;;;19.90;64.20;;;;;;5034094;28;20025;-57
2023/12/13 00:58:39;;;;;;;12.20;6.18;;;19.80;64.00;;;;;;5049519;28;20086;-55
2023/12/13 01:01:06;;;;;;;13.10;6.00;;;19.80;64.10;;;;;;5051331;28;20419;-52
2023/12/13 01:03:32;;;;;;;12.65;6.50;;;19.80;64.00;;;;;;5033590;28;20033;-54
2023/12/13 01:05:58;;;;;;;12.93;6.00;;;19.80;63.90;;;;;;5035880;28;20029;-53
2023/12/13 01:08:24;;;;;;;13.73;5.88;;;19.80;63.90;;;;;;5050231;28;20511;-55
2023/12/13 01:10:50;;;;;;;13.02;6.70;;;19.80;63.80;;;;;;5032919;28;20036;-56
2023/12/13 01:13:15;;;;;;;11.40;5.72;;;19.80;64.10;;;;;;5050362;28;20028;-54
2023/12/13 01:15:41;;;;;;;17.52;6.25;;;19.80;64.20;;;;;;5050983;28;20021;-56
2023/12/13 01:18:07;;;;;;;16.80;5.72;;;19.80;65.20;;;;;;5050247;28;20099;-56
2023/12/13 01:20:33;;;;;;;14.63;6.75;;;19.80;64.50;;;;;;5050677;28;20021;-56
2023/12/13 01:22:58;;;;;;;19.02;6.60;;;19.80;64.20;;;;;;5051552;28;20087;-57
2023/12/13 01:25:24;;;;;;;21.13;7.15;;;19.90;64.00;;;;;;5050941;28;20390;-57
2023/12/13 01:27:50;;;;;;;12.18;6.22;;;19.80;63.70;;;;;;5040812;28;20511;-54
2023/12/13 01:30:16;;;;;;;12.98;6.40;;;19.80;63.80;;;;;;5050378;28;20503;-53
2023/12/13 01:32:42;;;;;;;14.18;6.25;;;19.80;63.70;;;;;;5050622;28;20114;-56
2023/12/13 01:35:08;;;;;;;16.38;6.13;;;19.80;63.80;;;;;;5032493;28;20036;-57
2023/12/13 01:37:34;;;;;;;15.82;6.20;;;19.80;63.70;;;;;;5044594;28;20017;-55
2023/12/13 01:40:00;;;;;;;12.07;6.18;;;19.70;63.80;;;;;;5049386;28;20518;-57
2023/12/13 01:42:25;;;;;;;13.35;6.28;;;19.70;63.60;;;;;;5033965;28;20490;-56
2023/12/13 01:44:51;;;;;;;12.52;6.00;;;19.70;63.50;;;;;;5050455;28;20028;-57
2023/12/13 01:47:18;;;;;;;10.05;5.65;;;19.70;63.50;;;;;;5050719;28;20411;-56
2023/12/13 01:49:45;;;;;;;15.93;6.47;;;19.70;63.40;;;;;;5049136;28;20025;-57
2023/12/13 01:52:12;;;;;;;11.95;6.32;;;19.80;63.40;;;;;;5051028;28;20029;-53
2023/12/13 01:54:39;;;;;;;16.08;6.20;;;19.80;63.40;;;;;;5082707;22;20408;-58
2023/12/13 01:57:07;;;;;;;14.40;6.18;;;19.70;63.20;;;;;;5051180;28;20021;-56
2023/12/13 01:59:33;;;;;;;13.48;6.10;;;19.70;63.20;;;;;;5042571;28;20033;-58
2023/12/13 02:02:00;;;;;;;16.25;6.22;;;19.80;63.20;;;;;;5050716;28;20024;-54
2023/12/13 02:04:27;;;;;;;13.00;6.57;;;19.70;63.20;;;;;;5042579;28;20082;-57
2023/12/13 02:06:53;;;;;;;10.63;5.80;;;19.70;63.10;;;;;;5051784;28;20036;-55
2023/12/13 02:09:19;;;;;;;12.15;6.35;;;19.70;63.00;;;;;;5050530;28;20033;-56
2023/12/13 02:11:46;;;;;;;11.20;5.60;;;19.70;63.10;;;;;;5051489;28;20496;-57
2023/12/13 02:14:12;;;;;;;14.32;6.20;;;19.70;63.00;;;;;;5050899;28;20036;-53
2023/12/13 02:16:38;;;;;;;11.45;5.90;;;19.70;63.10;;;;;;5050800;28;20025;-56
2023/12/13 02:19:04;;;;;;;10.45;5.57;;;19.70;63.00;;;;;;5050407;28;20021;-54
2023/12/13 02:21:31;;;;;;;10.35;6.05;;;19.70;63.00;;;;;;5050035;28;20017;-54
2023/12/13 02:24:03;;;;;;;11.30;6.18;;;19.70;63.10;;;;;;5051079;28;20446;-57
2023/12/13 02:26:29;;;;;;;10.63;5.30;;;19.70;63.70;;;;;;5051151;28;20385;-54
2023/12/13 02:28:55;;;;;;;12.88;6.20;;;19.70;63.10;;;;;;5049465;28;20092;-52
2023/12/13 02:31:22;;;;;;;10.60;5.72;;;19.70;63.00;;;;;;5047117;28;20021;-57
2023/12/13 02:33:48;;;;;;;11.88;5.72;;;19.70;63.10;;;;;;5050308;28;20025;-54
2023/12/13 02:36:14;;;;;;;11.90;6.07;;;19.70;63.10;;;;;;5051015;28;20031;-53
2023/12/13 02:38:41;;;;;;;10.18;5.70;;;19.70;63.20;;;;;;5050466;28;20465;-57
2023/12/13 02:41:07;;;;;;;10.27;4.75;;;19.60;62.90;;;;;;5050923;28;20569;-50
2023/12/13 02:43:33;;;;;;;15.98;5.85;;;19.70;63.30;;;;;;5049380;28;20033;-53
2023/12/13 02:45:59;;;;;;;10.35;5.15;;;19.70;63.20;;;;;;5049770;28;20526;-57
2023/12/13 02:48:25;;;;;;;11.80;5.63;;;19.60;63.10;;;;;;5049994;28;20056;-54
2023/12/13 02:50:52;;;;;;;12.45;4.90;;;19.60;63.30;;;;;;5049022;28;20104;-54
2023/12/13 02:53:19;;;;;;;10.63;4.78;;;19.60;63.30;;;;;;5050609;28;20116;-52
2023/12/13 02:55:45;;;;;;;9.60;5.43;;;19.60;63.80;;;;;;5050828;28;20128;-55
2023/12/13 02:58:11;;;;;;;10.63;5.35;;;19.60;63.10;;;;;;5050401;28;20025;-57
2023/12/13 03:00:37;;;;;;;10.90;5.75;;;19.60;63.50;;;;;;5047236;28;20036;-56
2023/12/13 03:03:03;;;;;;;11.88;5.22;;;19.60;63.10;;;;;;5049946;28;20039;-56
2023/12/13 03:05:28;;;;;;;9.20;4.95;;;19.60;63.10;;;;;;5050350;28;20025;-53
2023/12/13 03:07:54;;;;;;;9.57;5.50;;;19.60;63.20;;;;;;5050191;28;20492;-54
2023/12/13 03:10:20;;;;;;;9.65;5.20;;;19.60;63.00;;;;;;5048699;28;20727;-53
2023/12/13 03:12:46;;;;;;;12.07;5.72;;;19.60;62.80;;;;;;5050362;28;20575;-56
2023/12/13 03:15:12;;;;;;;10.38;5.07;;;19.60;62.90;;;;;;5049972;28;20025;-57
2023/12/13 03:17:37;;;;;;;10.05;5.15;;;19.60;63.10;;;;;;5048004;28;20029;-57
2023/12/13 03:20:04;;;;;;;8.65;4.72;;;19.60;63.00;;;;;;5049696;28;20040;-55
2023/12/13 03:22:30;;;;;;;8.27;5.00;;;19.60;63.00;;;;;;5049960;28;20021;-55
2023/12/13 03:24:58;;;;;;;10.82;5.47;;;19.60;63.40;;;;;;5049626;28;20033;-58
2023/12/13 03:27:24;;;;;;;8.50;5.20;;;19.60;63.20;;;;;;5050454;28;20392;-58
2023/12/13 03:29:50;;;;;;;12.13;5.53;;;19.60;63.00;;;;;;5047960;28;20028;-52
2023/12/13 03:32:16;;;;;;;9.10;5.28;;;19.60;63.30;;;;;;5049536;28;20028;-53
2023/12/13 03:34:42;;;;;;;11.20;5.50;;;19.60;63.20;;;;;;5052862;28;20025;-55
2023/12/13 03:37:08;;;;;;;10.35;5.85;;;19.60;63.10;;;;;;5053296;28;20377;-57
2023/12/13 03:39:34;;;;;;;11.90;5.35;;;19.60;63.00;;;;;;5052997;28;20087;-54
2023/12/13 03:42:00;;;;;;;14.40;5.60;;;19.60;62.90;;;;;;5054230;28;20033;-56
2023/12/13 03:44:26;;;;;;;11.38;4.90;;;19.60;62.70;;;;;;5052550;28;20025;-55
2023/12/13 03:46:54;;;;;;;9.95;5.22;;;19.60;62.70;;;;;;5052888;28;20818;-56
2023/12/13 03:49:19;;;;;;;16.98;5.32;;;19.60;63.00;;;;;;5052745;28;20043;-53
2023/12/13 03:51:46;;;;;;;10.52;5.00;;;19.60;63.10;;;;;;5052465;28;20025;-55
2023/12/13 03:54:15;;;;;;;9.90;5.15;;;19.60;63.00;;;;;;5052513;28;20288;-52
2023/12/13 03:56:41;;;;;;;12.50;5.60;;;19.60;63.30;;;;;;5053811;28;20017;-55
2023/12/13 03:59:07;;;;;;;13.70;5.28;;;19.60;62.90;;;;;;5052693;28;20146;-55
2023/12/13 04:01:33;;;;;;;11.32;5.00;;;19.60;63.10;;;;;;5052995;28;20036;-57
2023/12/13 04:03:59;;;;;;;12.93;5.32;;;19.60;63.40;;;;;;5052166;28;20025;-56
2023/12/13 04:06:25;;;;;;;9.35;5.28;;;19.60;63.30;;;;;;5053326;28;20151;-54
2023/12/13 04:08:50;;;;;;;9.60;4.82;;;19.60;63.00;;;;;;5051933;28;20025;-52
2023/12/13 04:11:16;;;;;;;18.02;5.03;;;19.60;63.80;;;;;;5052596;28;20029;-57
2023/12/13 04:13:42;;;;;;;9.18;4.95;;;19.60;62.90;;;;;;5052730;28;20488;-56
2023/12/13 04:16:08;;;;;;;8.60;4.55;;;19.60;63.60;;;;;;5053460;28;20478;-56
2023/12/13 04:18:34;;;;;;;10.88;5.32;;;19.60;63.20;;;;;;5052052;28;20062;-56
2023/12/13 04:21:00;;;;;;;10.70;4.80;;;19.50;64.00;;;;;;5052136;28;20060;-55
2023/12/13 04:23:26;;;;;;;10.55;4.88;;;19.50;63.50;;;;;;5052212;28;20028;-53
2023/12/13 04:25:52;;;;;;;10.15;5.32;;;19.50;63.60;;;;;;5051963;28;20040;-58
2023/12/13 04:28:18;;;;;;;10.35;5.20;;;19.60;63.40;;;;;;5051364;28;20040;-55
2023/12/13 04:30:43;;;;;;;9.30;4.88;;;19.50;63.90;;;;;;5051677;28;20031;-56
2023/12/13 04:33:09;;;;;;;8.40;4.50;;;19.50;63.90;;;;;;5051591;28;20512;-55
2023/12/13 04:35:35;;;;;;;9.02;5.13;;;19.50;63.50;;;;;;5052495;28;20021;-57
2023/12/13 04:38:01;;;;;;;9.95;5.40;;;19.50;63.10;;;;;;5052351;28;20119;-58
2023/12/13 04:40:28;;;;;;;10.35;5.07;;;19.50;63.20;;;;;;5050868;28;20029;-56
2023/12/13 04:42:54;;;;;;;10.40;4.97;;;19.60;62.80;;;;;;5052755;28;20528;-55
2023/12/13 04:45:19;;;;;;;11.20;5.18;;;19.60;63.20;;;;;;5052561;28;20107;-58
2023/12/13 04:47:45;;;;;;;10.98;5.07;;;19.50;62.80;;;;;;5051408;28;20035;-58
2023/12/13 04:50:11;;;;;;;9.27;4.70;;;19.60;62.80;;;;;;5048610;28;20060;-57
2023/12/13 04:52:37;;;;;;;10.60;5.15;;;19.60;63.10;;;;;;5050875;28;20079;-58
2023/12/13 04:55:03;;;;;;;11.18;5.13;;;19.60;63.00;;;;;;5051137;28;20043;-58
2023/12/13 04:57:29;;;;;;;10.45;5.00;;;19.50;62.80;;;;;;5052718;28;20451;-58
2023/12/13 04:59:55;;;;;;;9.40;4.88;;;19.60;62.80;;;;;;5051630;28;20055;-58
2023/12/13 05:02:20;;;;;;;9.20;5.13;;;19.60;63.00;;;;;;5051854;28;20047;-58
2023/12/13 05:04:47;;;;;;;9.18;5.07;;;19.60;62.50;;;;;;5051661;28;20108;-58
2023/12/13 05:07:12;;;;;;;8.55;4.40;;;19.60;63.10;;;;;;5051488;28;20392;-56
2023/12/13 05:09:38;;;;;;;11.15;5.07;;;19.60;63.00;;;;;;5051393;28;20017;-58
2023/12/13 05:12:05;;;;;;;8.60;4.85;;;19.60;63.00;;;;;;5051416;28;20031;-58
2023/12/13 05:14:30;;;;;;;10.00;4.72;;;19.60;63.10;;;;;;5051327;28;20108;-58
2023/12/13 05:16:56;;;;;;;8.75;4.88;;;19.60;63.30;;;;;;5051477;28;20155;-57
2023/12/13 05:19:22;;;;;;;8.52;4.78;;;19.60;63.00;;;;;;5051024;28;20083;-58
2023/12/13 05:21:47;;;;;;;11.60;5.22;;;19.60;62.90;;;;;;5050626;28;20494;-57
2023/12/13 05:24:13;;;;;;;8.63;4.80;;;19.60;62.80;;;;;;5051267;28;20377;-59
2023/12/13 05:26:39;;;;;;;8.73;4.93;;;19.60;63.00;;;;;;5051935;28;20035;-58
2023/12/13 05:29:05;;;;;;;11.27;5.28;;;19.70;62.80;;;;;;5050709;28;20455;-56
2023/12/13 05:31:31;;;;;;;11.02;4.95;;;19.60;63.00;;;;;;5017115;28;20033;-58
2023/12/13 05:33:57;;;;;;;10.20;5.30;;;19.70;62.40;;;;;;5049418;28;20036;-58
2023/12/13 05:36:22;;;;;;;9.27;5.47;;;19.60;62.50;;;;;;5051767;28;20027;-59
2023/12/13 05:38:48;;;;;;;12.10;5.35;;;19.60;62.50;;;;;;5049230;28;20104;-58
2023/12/13 05:41:14;;;;;;;9.48;4.68;;;19.70;62.60;;;;;;5051146;28;20112;-56
2023/12/13 05:43:40;;;;;;;11.98;5.57;;;19.70;62.40;;;;;;5033047;28;20029;-57
2023/12/13 05:46:07;;;;;;;8.75;4.90;;;19.60;62.70;;;;;;5050646;28;20025;-59
2023/12/13 05:48:34;;;;;;;8.57;4.88;;;19.60;62.40;;;;;;5049691;28;20057;-58
2023/12/13 05:51:00;;;;;;;8.50;4.70;;;19.70;62.50;;;;;;5048553;28;20032;-58
2023/12/13 05:53:26;;;;;;;11.32;5.07;;;19.70;62.50;;;;;;5050165;28;20023;-55
2023/12/13 05:55:53;;;;;;;10.35;5.30;;;19.60;62.50;;;;;;5049068;28;20041;-55
2023/12/13 05:58:19;;;;;;;11.45;5.10;;;19.70;62.30;;;;;;5051379;28;20459;-55
2023/12/13 06:00:45;;;;;;;9.00;4.93;;;19.70;62.70;;;;;;5050505;28;20021;-53
2023/12/13 06:03:10;;;;;;;10.23;5.00;;;19.70;62.40;;;;;;5050495;28;20056;-53
2023/12/13 06:05:36;;;;;;;9.43;5.57;;;19.70;62.40;;;;;;5051189;28;20025;-51
2023/12/13 06:08:02;;;;;;;10.40;5.80;;;19.60;62.50;;;;;;5050814;28;20112;-53
2023/12/13 06:10:28;;;;;;;10.98;5.32;;;19.70;62.00;;;;;;5050107;28;20017;-50
2023/12/13 06:12:54;;;;;;;10.50;5.38;;;19.60;62.10;;;;;;5050463;28;20047;-58
2023/12/13 06:15:21;;;;;;;10.38;5.40;;;19.70;62.40;;;;;;5049820;28;20064;-51
2023/12/13 06:17:48;;;;;;;10.25;5.50;;;19.70;62.50;;;;;;5050463;28;20480;-54
2023/12/13 06:20:14;;;;;;;11.00;5.65;;;19.70;62.20;;;;;;5049981;28;20040;-55
2023/12/13 06:22:40;;;;;;;12.38;6.00;;;19.70;62.10;;;;;;5050537;28;20108;-54
2023/12/13 06:25:06;;;;;;;10.13;5.20;;;19.60;62.00;;;;;;5049925;28;20033;-52
2023/12/13 06:27:32;;;;;;;9.65;5.63;;;19.60;62.00;;;;;;5050706;28;20051;-58
2023/12/13 06:29:58;;;;;;;8.73;5.25;;;19.70;62.20;;;;;;5049090;28;20108;-52
2023/12/13 06:32:24;;;;;;;10.75;5.65;;;19.70;62.00;;;;;;5047666;28;20170;-58
2023/12/13 06:34:50;;;;;;;12.65;5.75;;;19.70;61.80;;;;;;5049535;28;20020;-59
2023/12/13 06:37:16;;;;;;;10.43;5.28;;;19.70;62.10;;;;;;5050512;28;20439;-57
2023/12/13 06:39:42;;;;;;;10.13;5.80;;;19.60;61.90;;;;;;5050799;28;20033;-58
2023/12/13 06:42:08;;;;;;;12.05;5.65;;;19.70;61.90;;;;;;5051120;28;20067;-53
2023/12/13 06:44:37;;;;;;;11.73;6.03;;;19.60;62.10;;;;;;5050893;28;20033;-52
2023/12/13 06:47:03;;;;;;;10.80;5.68;;;19.60;61.80;;;;;;5050928;28;20029;-55
2023/12/13 06:49:31;;;;;;;18.20;5.60;;;19.60;61.90;;;;;;5047889;28;20029;-57
2023/12/13 06:52:00;;;;;;;12.43;6.03;;;19.70;62.80;;;;;;5050672;28;20029;-57
2023/12/13 06:54:26;;;;;;;11.65;5.90;;;19.70;62.30;;;;;;5050671;28;20029;-57
2023/12/13 06:56:51;;;;;;;15.50;5.88;;;19.70;62.00;;;;;;5050848;28;20104;-57
2023/12/13 06:59:18;;;;;;;10.27;5.60;;;19.70;62.00;;;;;;5050386;28;20087;-57
2023/12/13 07:01:43;;;;;;;20.23;6.15;;;19.70;62.00;;;;;;5047638;28;20033;-53
2023/12/13 07:04:09;;;;;;;11.10;6.10;;;19.70;61.90;;;;;;5050303;28;20071;-54
2023/12/13 07:06:35;;;;;;;12.93;5.90;;;19.70;62.00;;;;;;5050395;28;20105;-53
2023/12/13 07:09:02;;;;;;;13.45;5.68;;;19.70;62.00;;;;;;5052606;28;20099;-52
2023/12/13 07:11:28;;;;;;;14.57;6.47;;;19.70;62.10;;;;;;5054282;28;20029;-47
2023/12/13 07:13:53;;;;;;;17.30;6.00;;;19.80;62.00;;;;;;5054166;28;20100;-53
2023/12/13 07:16:19;;;;;;;11.30;6.07;;;19.70;61.80;;;;;;5053739;28;20025;-55
2023/12/13 07:18:45;;;;;;;17.90;6.30;;;19.80;62.60;;;;;;5053935;28;20032;-57
2023/12/13 07:21:11;;;;;;;22.65;6.38;;;19.70;62.80;;;;;;5054211;28;20036;-55
2023/12/13 07:23:38;;;;;;;24.15;7.40;;;19.70;62.90;;;;;;5053953;28;20021;-55
2023/12/13 07:26:04;;;;;;;11.60;5.97;;;19.80;62.50;;;;;;5053554;28;20029;-55
2023/12/13 07:28:31;;;;;;;14.90;6.25;;;19.70;62.60;;;;;;5049345;28;20099;-56
2023/12/13 07:30:57;;;;;;;19.90;6.28;;;19.70;62.40;;;;;;5053551;28;20529;-56
2023/12/13 07:33:23;;;;;;;13.98;6.25;;;19.70;62.70;;;;;;5050589;28;20029;-57
2023/12/13 07:35:49;;;;;;;11.38;5.97;;;19.70;62.30;;;;;;5047985;28;20044;-57
2023/12/13 07:38:15;;;;;;;15.23;6.43;;;19.70;62.20;;;;;;5053443;28;20496;-55
2023/12/13 07:40:44;;;;;;;15.00;5.90;;;19.70;62.40;;;;;;5052337;28;20028;-55
2023/12/13 07:43:11;;;;;;;10.50;5.53;;;19.70;62.20;;;;;;5050054;28;20041;-53
2023/12/13 07:45:37;;;;;;;13.30;6.03;;;19.60;62.20;;;;;;5053161;28;20035;-55
2023/12/13 07:48:03;;;;;;;14.10;5.97;;;19.70;62.00;;;;;;5053065;28;20043;-52
2023/12/13 07:50:29;;;;;;;15.95;5.95;;;19.70;62.30;;;;;;5052991;28;20029;-52
2023/12/13 07:52:56;;;;;;;14.27;5.97;;;19.70;61.80;;;;;;5052170;28;20043;-53
2023/12/13 07:55:23;;;;;;;12.85;5.95;;;19.60;62.40;;;;;;5070631;22;20037;-56
2023/12/13 07:57:49;;;;;;;11.10;5.45;;;19.70;62.50;;;;;;5053602;28;20029;-56
2023/12/13 08:00:16;;;;;;;108.95;15.02;;;19.70;63.20;;;;;;5053515;28;20028;-51
2023/12/13 08:02:42;;;;;;;175.68;21.55;;;19.80;63.30;;;;;;5052478;28;20025;-58
2023/12/13 08:05:08;;;;;;;87.40;15.23;;;19.80;63.00;;;;;;5053389;28;20082;-56
2023/12/13 08:07:35;;;;;;;114.22;19.25;;;19.80;63.20;;;;;;5053665;28;20057;-56
2023/12/13 08:10:07;;;;;;;94.95;16.38;;;19.70;62.70;;;;;;5053288;28;20029;-59
2023/12/13 08:12:36;;;;;;;37.85;11.50;;;19.60;59.90;;;;;;5053531;28;20057;-53
2023/12/13 08:15:05;;;;;;;27.98;9.85;;;19.30;55.30;;;;;;5051047;28;20561;-59
2023/12/13 08:17:33;;;;;;;19.83;9.33;;;19.10;53.90;;;;;;5053109;28;20017;-55
2023/12/13 08:20:00;;;;;;;21.27;8.57;;;19.10;55.40;;;;;;5045342;28;20112;-58
2023/12/13 08:22:26;;;;;;;22.70;8.38;;;19.20;55.30;;;;;;5052535;28;20033;-58
2023/12/13 08:24:52;;;;;;;27.25;8.95;;;19.20;56.30;;;;;;5051084;28;20504;-59
2023/12/13 08:27:18;;;;;;;21.27;8.40;;;19.30;57.10;;;;;;5051050;28;20021;-58
2023/12/13 23:29:31;;;;;;;13.25;5.65;;;19.00;56.80;;;;;;5138447;27;20394;-56
2023/12/13 23:31:56;;;;;;;10.02;5.38;;;19.20;58.70;;;;;;5129399;27;20106;-54
2023/12/13 23:34:22;;;;;;;17.73;5.53;;;19.20;58.70;;;;;;5129396;28;20461;-56
2023/12/13 23:36:48;;;;;;;21.58;5.55;;;19.20;58.60;;;;;;5129133;28;20553;-54
2023/12/13 23:39:14;;;;;;;13.48;5.35;;;19.20;58.80;;;;;;5128831;27;20039;-57
2023/12/13 23:41:39;;;;;;;17.42;4.88;;;19.20;58.90;;;;;;5129250;27;20015;-54
2023/12/13 23:44:05;;;;;;;19.95;5.82;;;19.20;58.90;;;;;;5129076;27;20028;-56
2023/12/13 23:46:31;;;;;;;17.85;5.30;;;19.20;58.70;;;;;;5129093;28;20431;-55
2023/12/13 23:48:57;;;;;;;15.70;5.10;;;19.20;59.00;;;;;;5128650;27;20367;-57
2023/12/13 23:51:23;;;;;;;15.60;5.35;;;19.20;58.80;;;;;;5128653;27;20062;-53
2023/12/13 23:53:49;;;;;;;15.48;4.95;;;19.10;58.90;;;;;;5116096;28;20034;-56
2023/12/13 23:56:22;;;;;;;13.35;5.50;;;19.20;58.90;;;;;;5108584;28;20103;-57
2023/12/13 23:58:48;;;;;;;23.80;5.07;;;19.10;59.40;;;;;;5108172;28;20403;-55
